• Join FlightAware (Why Join?)
  • Login
  • US Flag 
02:57PM EDT


 

Airport Tracker/Info


-or-


 

Live Flight TrackerFlight Track Log ✈ N779NC ✈ 01-Jul-2013 ✈ KATL - KCAE

Flight Track Log - Related Links

Times and Time Zones

All times are in EDT time to prevent confusion due to time zone crossing. See the N779NC flight status page for this flight to view local times or setup timezone preferences in your user account.

Time Position Orientation Groundspeed Altitude Reporting Facility
EDT Latitude Longitude Course Direction KTS MPH feet Rate Location/Type
01:46PM 33.6519 -84.3831 100° East 408 470 2,600  Level Atlanta Center
01:47PM 33.6667 -84.3333 70° East 250 288 3,600 2,160 Climbing Atlanta TRACON
01:48PM 33.7000 -84.2500 64° Northeast 271 312 6,400 2,460 Climbing Atlanta TRACON
01:49PM 33.7044 -84.1236 88° East 309 356 9,300 1,800 Climbing Atlanta Center
01:50PM 33.6858 -84.0264 103° East 301 346 10,600 1,500 Climbing Atlanta Center
01:51PM 33.7155 -83.6538 85° East  Level Estimated
01:51PM 33.6586 -83.9039 105° East 339 390 12,300  Level Atlanta Center
01:52PM 33.6958 -83.5259 100° East  Level FlightAware Approximate
01:52PM 33.6667 -83.7792 86° East 371 427 14,200  Level Atlanta Center
01:53PM 33.6831 -83.6419 82° East 400 460 16,100 1,440 Climbing Atlanta Center
01:54PM 33.6950 -83.4969 84° East 426 490 17,100 1,200 Climbing Atlanta Center
01:56PM 33.7308 -83.2144 81° East 449 517 19,700 1,260 Climbing Atlanta Center
01:57PM 33.7506 -83.0569 81° East 467 537 21,000 1,200 Climbing Atlanta Center
01:58PM 33.7722 -82.9017 80° East 467 537 22,200 960 Climbing Atlanta Center
01:59PM 33.7894 -82.7414 83° East 480 552 23,000 240 Climbing Atlanta Center
02:01PM 33.7986 -82.6482 84° East  Level Estimated
02:01PM 33.8169 -82.4136 84° East 486 559 23,000  Level Atlanta Center
02:03PM 33.8319 -82.1050 87° East 535 616 20,100 -2,220 Descending Jacksonville Center
02:04PM 33.8286 -81.9550 91° East 484 557 16,900 -3,900 Descending Jacksonville Center
02:05PM 33.8339 -81.8150 87° East 439 505 12,300 -3,300 Descending Jacksonville Center
02:06PM 33.8411 -81.6847 86° East 411 473 10,300 -1,320 Descending Jacksonville Center
02:07PM 33.8608 -81.5744 78° East 345 397 9,700 -960 Descending Jacksonville Center
02:08PM 33.9269 -81.5111 38° Northeast 307 353 8,400 -1,440 Descending Jacksonville Center
02:09PM 33.9886 -81.4400 44° Northeast 296 341 6,800 -1,980 Descending Jacksonville Center
02:10PM 33.9939 -81.3497 86° East 274 315 4,500 -2,100 Descending Jacksonville Center
02:11PM 33.9742 -81.2697 107° East 252 290 2,700 -1,380 Descending Jacksonville Center
02:12PM 33.9692 -81.1997 95° East 246 283 1,800 -960 Descending Jacksonville Center